createdAt,value
2022-12-23T00:01:23.496Z,97776.38
2022-12-23T00:03:52.018Z,97784.03
2022-12-23T00:06:20.741Z,97778.56
2022-12-23T00:08:48.229Z,97775.22
2022-12-23T00:11:20.594Z,97783.31
2022-12-23T00:14:06.628Z,97779.22
2022-12-23T00:16:37.561Z,97778.84
2022-12-23T00:19:05.633Z,97786.91
2022-12-23T00:21:33.784Z,97778.97
2022-12-23T00:24:01.318Z,97777.41
2022-12-23T00:26:28.634Z,97774.03
2022-12-23T00:28:58.076Z,97787.53
2022-12-23T00:31:25.841Z,97777.00
2022-12-23T00:33:55.913Z,97782.78
2022-12-23T00:36:30.081Z,97793.81
2022-12-23T00:39:18.353Z,97788.47
2022-12-23T00:42:04.504Z,97792.00
2022-12-23T00:44:32.659Z,97794.75
2022-12-23T00:46:59.842Z,97796.19
2022-12-23T00:49:42.672Z,97789.44
2022-12-23T00:52:13.234Z,97788.16
2022-12-23T00:54:41.215Z,97777.63
2022-12-23T00:57:08.433Z,97784.75
2022-12-23T00:59:36.244Z,97778.38
2022-12-23T01:02:22.846Z,97776.75
2022-12-23T01:05:09.078Z,97767.50
2022-12-23T01:07:36.301Z,97763.63
2022-12-23T01:10:04.350Z,97769.63
2022-12-23T01:12:31.462Z,97772.75
2022-12-23T01:14:59.053Z,97777.94
2022-12-23T01:17:26.213Z,97773.34
2022-12-23T01:19:53.706Z,97775.38
2022-12-23T01:22:20.866Z,97768.94
2022-12-23T01:24:48.431Z,97760.31
2022-12-23T01:27:15.633Z,97766.22
2022-12-23T01:29:43.243Z,97756.56
2022-12-23T01:32:10.454Z,97759.88
2022-12-23T01:34:38.013Z,97760.72
2022-12-23T01:37:05.770Z,97758.59
2022-12-23T01:39:33.331Z,97763.78
2022-12-23T01:42:19.239Z,97766.84
2022-12-23T01:45:00.201Z,97767.97
2022-12-23T01:47:42.048Z,97758.56
2022-12-23T01:50:22.095Z,97759.16
2022-12-23T01:53:18.622Z,97758.34
2022-12-23T01:56:12.919Z,97773.06
2022-12-23T01:58:45.641Z,97770.09
2022-12-23T02:01:32.737Z,97773.44
2022-12-23T02:04:06.758Z,97783.38
2022-12-23T02:07:01.521Z,97785.66
2022-12-23T02:09:34.971Z,97787.22
2022-12-23T02:12:26.721Z,97785.44
2022-12-23T02:15:35.345Z,97786.91
2022-12-23T02:18:30.989Z,97794.03
2022-12-23T02:21:20.852Z,97793.16
2022-12-23T02:24:33.009Z,97793.06
2022-12-23T02:27:06.115Z,97796.63
2022-12-23T02:29:52.626Z,97796.78
2022-12-23T02:32:41.985Z,97795.25
2022-12-23T02:35:36.151Z,97801.78
2022-12-23T02:38:12.173Z,97804.34
2022-12-23T02:41:05.638Z,97800.91
2022-12-23T02:43:40.333Z,97795.13
2022-12-23T02:46:18.413Z,97803.63
2022-12-23T02:49:03.611Z,97807.81
2022-12-23T02:51:36.980Z,97806.94
2022-12-23T02:54:08.496Z,97796.56
2022-12-23T02:56:39.928Z,97800.34
2022-12-23T02:59:15.880Z,97793.75
2022-12-23T03:01:45.154Z,97797.16
2022-12-23T03:04:12.471Z,97796.19
2022-12-23T03:06:45.244Z,97796.00
2022-12-23T03:09:24.975Z,97792.91
2022-12-23T03:12:11.180Z,97787.13
2022-12-23T03:15:05.284Z,97781.50
2022-12-23T03:17:52.269Z,97774.72
2022-12-23T03:20:25.811Z,97776.88
2022-12-23T03:23:09.274Z,97780.66
2022-12-23T03:25:47.267Z,97774.31
2022-12-23T03:28:25.671Z,97776.84
2022-12-23T03:30:57.597Z,97780.28
2022-12-23T03:33:34.413Z,97783.09
2022-12-23T03:36:11.974Z,97783.16
2022-12-23T03:38:42.333Z,97780.94
2022-12-23T03:41:19.773Z,97779.38
2022-12-23T03:44:02.085Z,97773.31
2022-12-23T03:46:36.343Z,97779.72
2022-12-23T03:49:09.452Z,97769.94
2022-12-23T03:51:53.265Z,97768.00
2022-12-23T03:54:27.797Z,97770.63
2022-12-23T03:57:02.311Z,97772.84
2022-12-23T03:59:40.254Z,97764.22
2022-12-23T04:02:21.707Z,97769.34
2022-12-23T04:05:01.619Z,97759.19
2022-12-23T04:07:38.563Z,97756.34
2022-12-23T04:10:07.903Z,97753.50
2022-12-23T04:12:35.128Z,97758.19
2022-12-23T04:15:07.480Z,97759.56
2022-12-23T04:17:37.965Z,97746.34
2022-12-23T04:20:06.902Z,97754.63
2022-12-23T04:22:34.044Z,97750.25
2022-12-23T04:25:01.579Z,97748.69
2022-12-23T04:27:28.799Z,97741.38
2022-12-23T04:29:56.383Z,97727.63
2022-12-23T04:32:23.820Z,97727.63
2022-12-23T04:34:51.283Z,97737.16
2022-12-23T04:37:18.445Z,97734.78
2022-12-23T04:39:46.167Z,97730.41
2022-12-23T04:42:13.295Z,97724.34
2022-12-23T04:44:40.916Z,97728.44
2022-12-23T04:47:08.352Z,97731.88
2022-12-23T04:49:35.903Z,97730.03
2022-12-23T04:52:03.179Z,97732.53
2022-12-23T04:54:30.787Z,97728.09
2022-12-23T04:56:57.957Z,97726.69
2022-12-23T04:59:25.570Z,97729.31
2022-12-23T05:01:53.011Z,97725.28
2022-12-23T05:04:20.737Z,97715.81
2022-12-23T05:06:47.991Z,97721.22
2022-12-23T05:09:15.697Z,97714.38
2022-12-23T05:11:43.049Z,97711.16
2022-12-23T05:14:11.933Z,97710.88
2022-12-23T05:16:39.375Z,97706.72
2022-12-23T05:19:10.268Z,97699.44
2022-12-23T05:21:37.690Z,97697.91
2022-12-23T05:24:05.431Z,97704.78
2022-12-23T05:26:32.677Z,97709.88
2022-12-23T05:29:00.216Z,97701.53
2022-12-23T05:31:27.541Z,97702.44
2022-12-23T05:33:56.042Z,97704.38
2022-12-23T05:36:25.612Z,97699.41
2022-12-23T05:38:53.423Z,97687.44
2022-12-23T05:41:20.623Z,97700.31
2022-12-23T05:43:48.127Z,97697.66
2022-12-23T05:46:16.264Z,97700.03
2022-12-23T05:48:46.479Z,97696.78
2022-12-23T05:51:13.820Z,97698.91
2022-12-23T05:53:41.648Z,97697.41
2022-12-23T05:56:09.047Z,97701.28
2022-12-23T05:58:36.530Z,97694.88
2022-12-23T06:01:04.200Z,97698.59
2022-12-23T06:03:31.856Z,97698.78
2022-12-23T06:05:59.142Z,97698.13
2022-12-23T06:08:27.079Z,97705.00
2022-12-23T06:10:54.384Z,97706.19
2022-12-23T06:13:24.708Z,97716.28
2022-12-23T06:15:51.978Z,97712.75
2022-12-23T06:18:19.636Z,97706.03
2022-12-23T06:20:47.940Z,97715.53
2022-12-23T06:23:15.707Z,97705.94
2022-12-23T06:25:42.847Z,97711.94
2022-12-23T06:28:10.417Z,97712.75
2022-12-23T06:30:37.672Z,97712.81
2022-12-23T06:33:05.265Z,97716.06
2022-12-23T06:35:32.498Z,97712.56
2022-12-23T06:38:00.298Z,97715.75
2022-12-23T06:40:29.410Z,97712.03
2022-12-23T06:42:57.085Z,97714.38
2022-12-23T06:45:24.833Z,97721.78
2022-12-23T06:47:52.374Z,97715.03
2022-12-23T06:50:19.607Z,97712.41
2022-12-23T06:52:47.265Z,97715.03
2022-12-23T09:28:18.867Z,97651.66
2022-12-23T09:30:46.663Z,97653.31
2022-12-23T09:33:14.122Z,97652.16
2022-12-23T09:35:41.786Z,97654.53
2022-12-23T09:38:09.454Z,97649.28
2022-12-23T09:40:39.202Z,97642.59
2022-12-23T09:43:40.394Z,97639.59
2022-12-23T09:46:20.728Z,97634.19
2022-12-23T09:49:11.323Z,97633.13
2022-12-23T09:51:39.239Z,97637.13
2022-12-23T09:54:23.360Z,97622.47
2022-12-23T09:57:03.345Z,97633.44
2022-12-23T09:59:49.339Z,97631.84
2022-12-23T10:02:27.256Z,97630.66
2022-12-23T10:11:46.495Z,97624.00
2022-12-23T10:14:34.511Z,97623.53
2022-12-23T10:17:17.757Z,97620.09
2022-12-23T10:19:48.536Z,97620.63
2022-12-23T10:22:20.676Z,97619.13
2022-12-23T10:24:49.051Z,97607.81
2022-12-23T10:27:31.582Z,97607.34
2022-12-23T10:30:19.912Z,97624.97
2022-12-23T10:33:05.393Z,97621.34
2022-12-23T10:35:44.618Z,97618.78
2022-12-23T10:38:47.325Z,97624.56
2022-12-23T10:41:21.130Z,97609.63
2022-12-23T10:44:09.072Z,97621.88
2022-12-23T10:46:49.366Z,97612.78
2022-12-23T10:49:31.773Z,97616.13
2022-12-23T10:52:04.063Z,97619.19
2022-12-23T10:54:36.127Z,97604.97
2022-12-23T10:57:06.684Z,97601.06
2022-12-23T10:59:36.657Z,97603.31
2022-12-23T11:13:35.403Z,97602.69
2022-12-23T11:16:21.588Z,97604.72
2022-12-23T11:18:56.428Z,97613.59
2022-12-23T11:21:24.143Z,97603.88
2022-12-23T11:24:09.784Z,97610.84
2022-12-23T11:26:37.443Z,97604.44
2022-12-23T11:29:09.651Z,97615.31
2022-12-23T11:31:37.988Z,97610.97
2022-12-23T11:34:13.734Z,97616.97
2022-12-23T11:36:41.977Z,97613.00
2022-12-23T11:39:24.275Z,97615.31
2022-12-23T11:41:56.603Z,97616.13
2022-12-23T11:44:26.453Z,97612.34
2022-12-23T11:46:55.050Z,97613.63
2022-12-23T11:49:22.154Z,97607.25
2022-12-23T11:52:14.183Z,97600.78
2022-12-23T11:54:54.278Z,97598.88
2022-12-23T11:57:32.597Z,97593.34
2022-12-23T12:00:04.468Z,97596.91
2022-12-23T12:05:49.345Z,97588.69
2022-12-23T12:08:36.106Z,97589.88
2022-12-23T12:11:12.159Z,97590.03
2022-12-23T12:13:42.704Z,97588.97
2022-12-23T12:16:28.481Z,97600.31
2022-12-23T12:19:00.941Z,97603.13
2022-12-23T12:21:33.408Z,97607.63
2022-12-23T12:24:18.185Z,97611.59
2022-12-23T12:26:51.529Z,97608.34
2022-12-23T12:29:36.179Z,97610.69
2022-12-23T12:32:07.830Z,97612.00
2022-12-23T12:35:06.387Z,97608.38
2022-12-23T12:37:48.073Z,97600.78
2022-12-23T12:40:50.095Z,97614.25
2022-12-23T12:43:31.945Z,97613.09
2022-12-23T12:46:21.034Z,97609.13
2022-12-23T12:48:48.135Z,97613.56
2022-12-23T12:51:34.101Z,97624.81
2022-12-23T12:54:33.570Z,97623.88
2022-12-23T12:57:02.569Z,97622.38
2022-12-23T12:59:37.158Z,97626.13
2022-12-23T13:02:26.391Z,97632.34
2022-12-23T13:05:30.442Z,97631.72
2022-12-23T13:08:13.223Z,97635.47
2022-12-23T13:10:45.370Z,97643.72
2022-12-23T13:13:19.268Z,97643.47
2022-12-23T13:16:04.684Z,97643.13
2022-12-23T13:18:55.218Z,97641.59
2022-12-23T13:21:25.523Z,97637.50
2022-12-23T13:24:01.915Z,97641.91
2022-12-23T13:26:46.090Z,97638.81
2022-12-23T13:29:32.450Z,97631.91
2022-12-23T13:32:15.553Z,97646.50
2022-12-23T13:35:41.113Z,97640.19
2022-12-23T13:38:54.638Z,97643.06
2022-12-23T13:41:35.051Z,97652.31
2022-12-23T13:44:05.649Z,97651.72
2022-12-23T13:46:45.774Z,97650.41
2022-12-23T13:49:31.172Z,97646.81
2022-12-23T13:52:29.635Z,97659.16
2022-12-23T13:55:10.900Z,97662.19
2022-12-23T13:58:01.696Z,97658.03
2022-12-23T14:00:34.543Z,97664.78
2022-12-23T14:03:02.218Z,97658.97
2022-12-23T14:05:36.032Z,97662.41
2022-12-23T14:08:19.951Z,97661.44
2022-12-23T14:11:29.993Z,97664.53
2022-12-23T14:14:05.313Z,97667.53
2022-12-23T14:16:41.796Z,97667.00
2022-12-23T14:19:35.542Z,97665.34
2022-12-23T14:22:14.005Z,97669.34
2022-12-23T14:24:53.251Z,97674.25
2022-12-23T14:27:45.966Z,97669.22
2022-12-23T14:30:21.606Z,97663.47
2022-12-23T14:32:52.395Z,97675.34
2022-12-23T14:35:36.992Z,97661.31
2022-12-23T14:38:15.246Z,97671.56
2022-12-23T14:40:42.840Z,97670.41
2022-12-23T14:43:26.832Z,97670.25
2022-12-23T14:46:00.021Z,97683.13
2022-12-23T14:48:42.040Z,97685.53
2022-12-23T14:51:09.598Z,97683.94
2022-12-23T14:53:57.956Z,97681.25
2022-12-23T14:56:40.656Z,97679.31
2022-12-23T14:59:27.365Z,97687.63
2022-12-23T15:02:14.897Z,97681.81
2022-12-23T15:04:53.347Z,97691.31
2022-12-23T15:07:35.381Z,97688.91
2022-12-23T15:10:07.072Z,97678.38
2022-12-23T15:12:43.408Z,97676.28
2022-12-23T15:15:20.643Z,97675.16
2022-12-23T15:17:49.437Z,97685.44
2022-12-23T15:20:21.159Z,97681.09
2022-12-23T15:22:49.562Z,97672.94
2022-12-23T15:25:27.986Z,97679.28
2022-12-23T15:28:01.533Z,97690.28
2022-12-23T15:30:37.742Z,97684.50
2022-12-23T15:33:34.780Z,97691.47
2022-12-23T15:35:57.070Z,97687.63
2022-12-23T15:38:33.511Z,97690.25
2022-12-23T15:41:13.114Z,97687.03
2022-12-23T15:43:42.136Z,97690.03
2022-12-23T15:46:18.276Z,97698.63
2022-12-23T15:48:49.237Z,97689.50
2022-12-23T15:51:42.679Z,97688.91
2022-12-23T15:54:14.793Z,97689.38
2022-12-23T15:56:48.780Z,97697.50
2022-12-23T15:59:33.362Z,97689.78
2022-12-23T16:02:32.600Z,97696.28
2022-12-23T16:05:00.890Z,97689.53
2022-12-23T16:07:35.818Z,97686.63
2022-12-23T16:10:20.467Z,97692.06
2022-12-23T16:12:51.947Z,97688.41
2022-12-23T16:15:21.744Z,97689.91
2022-12-23T16:17:49.144Z,97689.09
2022-12-23T16:20:22.213Z,97693.13
2022-12-23T16:22:53.362Z,97683.72
2022-12-23T16:25:26.223Z,97688.16
2022-12-23T16:27:56.304Z,97690.97
2022-12-23T16:30:35.940Z,97681.06
2022-12-23T16:33:21.559Z,97674.75
2022-12-23T16:35:49.148Z,97679.38
2022-12-23T16:38:24.682Z,97676.25
2022-12-23T16:40:57.215Z,97676.00
2022-12-23T16:43:25.807Z,97675.59
2022-12-23T16:45:56.187Z,97665.31
2022-12-23T16:48:31.236Z,97660.00
2022-12-23T16:51:00.268Z,97655.31
2022-12-23T16:53:28.086Z,97653.84
2022-12-23T16:56:00.620Z,97654.00
2022-12-23T16:58:29.335Z,97657.72
2022-12-23T17:04:18.005Z,97669.31
2022-12-23T17:06:46.790Z,97666.75
2022-12-23T17:09:14.259Z,97670.13
2022-12-23T17:11:53.621Z,97658.97
2022-12-23T17:14:23.607Z,97663.88
2022-12-23T17:16:51.993Z,97660.34
2022-12-23T17:19:25.599Z,97661.16
2022-12-23T17:22:01.677Z,97667.88
2022-12-23T17:24:29.021Z,97665.53
2022-12-23T17:26:57.454Z,97673.88
2022-12-23T17:29:25.016Z,97665.47
2022-12-23T17:31:53.169Z,97666.72
2022-12-23T17:34:24.519Z,97678.03
2022-12-23T17:36:52.894Z,97672.13
2022-12-23T17:39:21.788Z,97686.16
2022-12-23T17:41:49.822Z,97680.03
2022-12-23T17:44:19.066Z,97675.44
2022-12-23T17:46:47.089Z,97683.63
2022-12-23T17:49:14.435Z,97682.13
2022-12-23T17:51:42.674Z,97677.59
2022-12-23T17:54:30.355Z,97679.09
2022-12-23T17:56:57.828Z,97682.06
2022-12-23T17:59:24.931Z,97687.88
2022-12-23T18:01:52.855Z,97692.88
2022-12-23T18:04:20.089Z,97681.69
2022-12-23T18:06:47.548Z,97687.09
2022-12-23T18:09:15.202Z,97690.72
2022-12-23T18:11:45.548Z,97691.53
2022-12-23T18:14:29.469Z,97687.53
2022-12-23T18:16:57.102Z,97675.06
2022-12-23T18:19:24.380Z,97688.38
2022-12-23T18:21:52.617Z,97687.03
2022-12-23T18:24:19.779Z,97693.28
2022-12-23T18:26:47.826Z,97689.81
2022-12-23T18:29:15.176Z,97697.69
2022-12-23T18:31:51.194Z,97695.31
2022-12-23T18:34:20.225Z,97694.69
2022-12-23T18:36:48.713Z,97700.53
2022-12-23T18:39:15.944Z,97704.75
2022-12-23T18:41:43.914Z,97712.56
2022-12-23T18:44:19.556Z,97719.22
2022-12-23T18:46:48.327Z,97715.88
2022-12-23T18:49:15.642Z,97709.50
2022-12-23T18:51:43.174Z,97710.84
2022-12-23T18:54:15.148Z,97694.59
2022-12-23T18:56:43.330Z,97695.50
2022-12-23T18:59:27.449Z,97688.31
2022-12-23T19:01:57.502Z,97696.09
2022-12-23T19:04:25.155Z,97690.84
2022-12-23T19:06:52.933Z,97683.63
2022-12-23T19:09:22.379Z,97688.50
2022-12-23T19:11:52.471Z,97683.94
2022-12-23T19:14:19.611Z,97670.50
2022-12-23T19:16:51.457Z,97681.88
2022-12-23T19:19:20.304Z,97679.97
2022-12-23T19:21:47.910Z,97681.00
2022-12-23T19:24:15.079Z,97688.63
2022-12-23T19:26:42.563Z,97690.72
2022-12-23T19:29:10.004Z,97695.06
2022-12-23T19:31:37.545Z,97690.03
2022-12-23T19:34:08.280Z,97694.78
2022-12-23T19:36:40.452Z,97691.81
2022-12-23T19:39:16.639Z,97690.69
2022-12-23T19:41:45.547Z,97692.25
2022-12-23T19:44:12.848Z,97687.28
2022-12-23T19:46:40.414Z,97687.72
2022-12-23T19:49:07.805Z,97677.38
2022-12-23T19:51:35.327Z,97673.75
2022-12-23T19:54:02.514Z,97679.06
2022-12-23T19:56:30.719Z,97677.00
2022-12-23T19:58:57.878Z,97689.13
2022-12-23T20:01:26.938Z,97692.28
2022-12-23T20:03:56.034Z,97686.84
2022-12-23T20:06:29.752Z,97683.03
2022-12-23T20:09:00.824Z,97692.09
2022-12-23T20:11:31.013Z,97682.03
2022-12-23T20:13:59.146Z,97679.53
2022-12-23T20:16:27.597Z,97682.66
2022-12-23T20:18:55.303Z,97677.06
2022-12-23T20:21:23.612Z,97664.84
2022-12-23T20:23:50.821Z,97656.13
2022-12-23T20:26:19.226Z,97658.88
2022-12-23T20:28:46.947Z,97646.22
2022-12-23T20:31:15.785Z,97637.81
2022-12-23T20:33:43.312Z,97629.19
2022-12-23T20:36:14.105Z,97630.22
2022-12-23T20:38:42.749Z,97633.97
2022-12-23T20:41:13.973Z,97627.53
2022-12-23T20:43:42.572Z,97622.25
2022-12-23T20:46:12.945Z,97617.47
2022-12-23T20:48:41.266Z,97610.16
2022-12-23T20:51:13.130Z,97615.31
2022-12-23T20:53:40.504Z,97614.50
2022-12-23T20:56:12.661Z,97610.38
2022-12-23T20:58:55.514Z,97609.56
2022-12-23T21:01:27.761Z,97600.78
2022-12-23T21:03:57.732Z,97593.88
2022-12-23T21:06:26.638Z,97598.47
2022-12-23T21:08:55.912Z,97588.78
2022-12-23T21:11:23.792Z,97591.19
2022-12-23T21:13:51.931Z,97605.47
2022-12-23T21:16:19.761Z,97608.56
2022-12-23T21:18:53.481Z,97591.56
2022-12-23T21:21:23.835Z,97587.72
2022-12-23T21:23:50.979Z,97585.72
2022-12-23T21:26:21.030Z,97591.88
2022-12-23T21:28:49.689Z,97589.06
2022-12-23T21:31:20.461Z,97585.63
2022-12-23T21:33:49.420Z,97594.19
2022-12-23T21:36:20.515Z,97592.56
2022-12-23T21:38:49.906Z,97590.75
2022-12-23T21:41:22.590Z,97591.03
2022-12-23T21:43:50.584Z,97589.22
2022-12-23T21:46:21.355Z,97588.41
2022-12-23T21:48:49.954Z,97592.81
2022-12-23T21:51:23.264Z,97596.00
2022-12-23T21:53:55.805Z,97587.53
2022-12-23T21:56:27.323Z,97594.78
2022-12-23T21:59:14.592Z,97592.31
2022-12-23T22:01:43.259Z,97586.75
2022-12-23T22:04:10.648Z,97589.16
2022-12-23T22:06:40.713Z,97589.41
2022-12-23T22:09:08.604Z,97593.97
2022-12-23T22:11:37.566Z,97591.28
2022-12-23T22:14:07.595Z,97584.19
2022-12-23T22:16:36.189Z,97583.09
2022-12-23T22:19:05.011Z,97578.03
2022-12-23T22:21:33.845Z,97576.66
2022-12-23T22:24:02.625Z,97577.88
2022-12-23T22:26:32.551Z,97571.72
2022-12-23T22:29:01.658Z,97569.75
2022-12-23T22:31:40.137Z,97562.50
2022-12-23T22:34:08.869Z,97573.72
2022-12-23T22:36:36.705Z,97568.25
2022-12-23T22:39:05.332Z,97567.38
2022-12-23T22:41:34.971Z,97573.28
2022-12-23T22:44:02.122Z,97559.38
2022-12-23T22:46:30.338Z,97558.47
2022-12-23T22:48:59.053Z,97548.94
2022-12-23T22:51:29.724Z,97555.91
2022-12-23T22:53:58.510Z,97555.72
2022-12-23T22:56:27.101Z,97539.66
2022-12-23T22:58:55.139Z,97542.19
2022-12-23T23:04:06.052Z,97553.16
2022-12-23T23:06:38.182Z,97553.25
2022-12-23T23:09:07.848Z,97562.50
2022-12-23T23:11:35.715Z,97561.81
2022-12-23T23:14:03.140Z,97564.13
2022-12-23T23:16:30.757Z,97554.06
2022-12-23T23:18:59.324Z,97559.06
2022-12-23T23:21:27.290Z,97552.91
2022-12-23T23:23:54.403Z,97557.22
2022-12-23T23:26:26.870Z,97561.34
2022-12-23T23:28:55.002Z,97554.91
2022-12-23T23:34:10.385Z,97554.59
2022-12-23T23:36:38.162Z,97550.97
2022-12-23T23:39:07.743Z,97552.44
2022-12-23T23:41:36.059Z,97550.59
2022-12-23T23:44:03.356Z,97548.63
2022-12-23T23:46:31.999Z,97548.28
2022-12-23T23:48:59.607Z,97541.19
2022-12-23T23:51:27.170Z,97534.25
2022-12-23T23:53:54.375Z,97521.25
2022-12-23T23:56:25.799Z,97522.69
2022-12-23T23:58:54.408Z,97524.97
